sensor_id;sensor_type;location;lat;lon;timestamp;P1;durP1;ratioP1;P2;durP2;ratioP2
24685;SDS011;12804;51.176;4.452;2023-12-28T00:00:53;3.80;;;2.10;;
24685;SDS011;12804;51.176;4.452;2023-12-28T00:03:18;2.38;;;1.58;;
24685;SDS011;12804;51.176;4.452;2023-12-28T00:05:44;3.90;;;2.03;;
24685;SDS011;12804;51.176;4.452;2023-12-28T00:08:10;2.50;;;1.65;;
24685;SDS011;12804;51.176;4.452;2023-12-28T00:10:36;3.85;;;1.90;;
24685;SDS011;12804;51.176;4.452;2023-12-28T00:13:02;2.88;;;1.80;;
24685;SDS011;12804;51.176;4.452;2023-12-28T00:15:28;4.22;;;1.95;;
24685;SDS011;12804;51.176;4.452;2023-12-28T00:17:54;3.08;;;1.90;;
24685;SDS011;12804;51.176;4.452;2023-12-28T00:20:20;3.58;;;2.10;;
24685;SDS011;12804;51.176;4.452;2023-12-28T00:22:45;3.38;;;1.75;;
24685;SDS011;12804;51.176;4.452;2023-12-28T00:25:11;3.22;;;1.70;;
24685;SDS011;12804;51.176;4.452;2023-12-28T00:27:37;3.65;;;2.03;;
24685;SDS011;12804;51.176;4.452;2023-12-28T00:30:04;3.88;;;1.98;;
24685;SDS011;12804;51.176;4.452;2023-12-28T00:32:31;2.17;;;1.70;;
24685;SDS011;12804;51.176;4.452;2023-12-28T00:34:56;2.67;;;1.55;;
24685;SDS011;12804;51.176;4.452;2023-12-28T00:37:22;3.72;;;2.10;;
24685;SDS011;12804;51.176;4.452;2023-12-28T00:39:48;4.72;;;2.05;;
24685;SDS011;12804;51.176;4.452;2023-12-28T00:42:17;3.15;;;1.90;;
24685;SDS011;12804;51.176;4.452;2023-12-28T00:44:44;2.80;;;1.55;;
24685;SDS011;12804;51.176;4.452;2023-12-28T00:47:10;4.07;;;1.80;;
24685;SDS011;12804;51.176;4.452;2023-12-28T00:49:36;2.42;;;1.67;;
24685;SDS011;12804;51.176;4.452;2023-12-28T00:52:02;3.00;;;2.05;;
24685;SDS011;12804;51.176;4.452;2023-12-28T00:54:29;2.30;;;1.60;;
24685;SDS011;12804;51.176;4.452;2023-12-28T00:56:55;2.45;;;1.52;;
24685;SDS011;12804;51.176;4.452;2023-12-28T00:59:21;3.88;;;1.70;;
24685;SDS011;12804;51.176;4.452;2023-12-28T01:01:46;2.15;;;1.75;;
24685;SDS011;12804;51.176;4.452;2023-12-28T01:04:12;2.15;;;1.40;;
24685;SDS011;12804;51.176;4.452;2023-12-28T01:06:38;3.38;;;1.85;;
24685;SDS011;12804;51.176;4.452;2023-12-28T01:09:05;2.10;;;1.60;;
24685;SDS011;12804;51.176;4.452;2023-12-28T01:11:31;5.55;;;2.08;;
24685;SDS011;12804;51.176;4.452;2023-12-28T01:13:57;3.30;;;2.03;;
24685;SDS011;12804;51.176;4.452;2023-12-28T01:16:24;4.30;;;1.70;;
24685;SDS011;12804;51.176;4.452;2023-12-28T01:18:50;4.70;;;1.73;;
24685;SDS011;12804;51.176;4.452;2023-12-28T01:21:15;3.83;;;1.70;;
24685;SDS011;12804;51.176;4.452;2023-12-28T01:23:42;6.00;;;2.20;;
24685;SDS011;12804;51.176;4.452;2023-12-28T01:26:12;4.95;;;1.80;;
24685;SDS011;12804;51.176;4.452;2023-12-28T01:28:42;5.60;;;1.67;;
24685;SDS011;12804;51.176;4.452;2023-12-28T01:31:08;2.67;;;2.05;;
24685;SDS011;12804;51.176;4.452;2023-12-28T01:33:34;2.72;;;1.77;;
24685;SDS011;12804;51.176;4.452;2023-12-28T01:36:01;4.25;;;2.38;;
24685;SDS011;12804;51.176;4.452;2023-12-28T01:38:27;3.03;;;1.88;;
24685;SDS011;12804;51.176;4.452;2023-12-28T01:40:53;3.38;;;1.83;;
24685;SDS011;12804;51.176;4.452;2023-12-28T01:43:19;3.30;;;1.70;;
24685;SDS011;12804;51.176;4.452;2023-12-28T01:45:45;3.08;;;1.67;;
24685;SDS011;12804;51.176;4.452;2023-12-28T01:48:11;3.85;;;1.90;;
24685;SDS011;12804;51.176;4.452;2023-12-28T01:50:37;5.35;;;1.83;;
24685;SDS011;12804;51.176;4.452;2023-12-28T01:53:04;4.30;;;2.05;;
24685;SDS011;12804;51.176;4.452;2023-12-28T01:55:32;5.00;;;1.95;;
24685;SDS011;12804;51.176;4.452;2023-12-28T01:57:59;2.97;;;1.80;;
24685;SDS011;12804;51.176;4.452;2023-12-28T02:00:25;3.90;;;1.80;;
24685;SDS011;12804;51.176;4.452;2023-12-28T02:02:51;4.00;;;1.67;;
24685;SDS011;12804;51.176;4.452;2023-12-28T02:05:17;3.10;;;2.08;;
24685;SDS011;12804;51.176;4.452;2023-12-28T02:07:44;2.75;;;1.55;;
24685;SDS011;12804;51.176;4.452;2023-12-28T02:10:10;4.63;;;1.80;;
24685;SDS011;12804;51.176;4.452;2023-12-28T02:12:35;5.45;;;1.90;;
24685;SDS011;12804;51.176;4.452;2023-12-28T02:15:01;5.57;;;2.08;;
24685;SDS011;12804;51.176;4.452;2023-12-28T02:20:16;4.15;;;1.70;;
24685;SDS011;12804;51.176;4.452;2023-12-28T02:22:45;3.05;;;1.67;;
24685;SDS011;12804;51.176;4.452;2023-12-28T02:25:12;2.60;;;1.67;;
24685;SDS011;12804;51.176;4.452;2023-12-28T02:27:40;3.08;;;1.60;;
24685;SDS011;12804;51.176;4.452;2023-12-28T02:30:07;3.20;;;1.90;;
24685;SDS011;12804;51.176;4.452;2023-12-28T02:35:16;4.25;;;1.67;;
24685;SDS011;12804;51.176;4.452;2023-12-28T02:37:51;1.98;;;1.40;;
24685;SDS011;12804;51.176;4.452;2023-12-28T02:40:21;3.97;;;2.00;;
24685;SDS011;12804;51.176;4.452;2023-12-28T02:42:49;2.70;;;1.67;;
24685;SDS011;12804;51.176;4.452;2023-12-28T02:45:14;2.88;;;1.90;;
24685;SDS011;12804;51.176;4.452;2023-12-28T02:47:40;2.35;;;1.70;;
24685;SDS011;12804;51.176;4.452;2023-12-28T02:50:06;3.00;;;1.40;;
24685;SDS011;12804;51.176;4.452;2023-12-28T02:52:32;6.68;;;2.08;;
24685;SDS011;12804;51.176;4.452;2023-12-28T02:54:58;3.20;;;1.42;;
24685;SDS011;12804;51.176;4.452;2023-12-28T02:57:24;4.03;;;1.60;;
24685;SDS011;12804;51.176;4.452;2023-12-28T02:59:50;4.68;;;1.50;;
24685;SDS011;12804;51.176;4.452;2023-12-28T03:02:16;4.97;;;2.00;;
24685;SDS011;12804;51.176;4.452;2023-12-28T03:04:42;5.20;;;1.58;;
24685;SDS011;12804;51.176;4.452;2023-12-28T03:07:08;3.63;;;1.40;;
24685;SDS011;12804;51.176;4.452;2023-12-28T03:09:33;3.85;;;1.60;;
24685;SDS011;12804;51.176;4.452;2023-12-28T03:12:00;3.47;;;1.77;;
24685;SDS011;12804;51.176;4.452;2023-12-28T03:14:26;4.57;;;1.35;;
24685;SDS011;12804;51.176;4.452;2023-12-28T03:16:51;5.18;;;1.70;;
24685;SDS011;12804;51.176;4.452;2023-12-28T03:19:17;2.85;;;1.40;;
24685;SDS011;12804;51.176;4.452;2023-12-28T03:21:44;4.43;;;1.58;;
24685;SDS011;12804;51.176;4.452;2023-12-28T03:24:10;6.15;;;1.88;;
24685;SDS011;12804;51.176;4.452;2023-12-28T03:26:39;4.63;;;1.65;;
24685;SDS011;12804;51.176;4.452;2023-12-28T03:29:05;7.22;;;2.00;;
24685;SDS011;12804;51.176;4.452;2023-12-28T03:31:32;5.47;;;1.70;;
24685;SDS011;12804;51.176;4.452;2023-12-28T03:33:58;5.22;;;1.80;;
24685;SDS011;12804;51.176;4.452;2023-12-28T03:36:24;6.03;;;1.42;;
24685;SDS011;12804;51.176;4.452;2023-12-28T03:38:51;6.22;;;1.50;;
24685;SDS011;12804;51.176;4.452;2023-12-28T03:41:18;4.50;;;1.35;;
24685;SDS011;12804;51.176;4.452;2023-12-28T03:43:44;5.85;;;1.70;;
24685;SDS011;12804;51.176;4.452;2023-12-28T03:46:11;4.97;;;1.70;;
24685;SDS011;12804;51.176;4.452;2023-12-28T03:48:37;3.58;;;1.70;;
24685;SDS011;12804;51.176;4.452;2023-12-28T03:51:03;3.55;;;1.50;;
24685;SDS011;12804;51.176;4.452;2023-12-28T03:53:29;4.18;;;1.58;;
24685;SDS011;12804;51.176;4.452;2023-12-28T03:55:58;2.92;;;1.50;;
24685;SDS011;12804;51.176;4.452;2023-12-28T03:58:25;6.95;;;3.65;;
24685;SDS011;12804;51.176;4.452;2023-12-28T04:00:50;6.85;;;1.55;;
24685;SDS011;12804;51.176;4.452;2023-12-28T04:03:18;4.47;;;1.60;;
24685;SDS011;12804;51.176;4.452;2023-12-28T04:05:44;5.20;;;1.77;;
24685;SDS011;12804;51.176;4.452;2023-12-28T04:08:09;5.07;;;1.55;;
24685;SDS011;12804;51.176;4.452;2023-12-28T04:10:35;4.40;;;1.50;;
24685;SDS011;12804;51.176;4.452;2023-12-28T04:13:04;9.00;;;1.55;;
24685;SDS011;12804;51.176;4.452;2023-12-28T04:15:30;4.43;;;1.60;;
24685;SDS011;12804;51.176;4.452;2023-12-28T04:17:56;3.95;;;1.50;;
24685;SDS011;12804;51.176;4.452;2023-12-28T04:20:22;6.32;;;1.70;;
24685;SDS011;12804;51.176;4.452;2023-12-28T04:22:49;6.00;;;1.70;;
24685;SDS011;12804;51.176;4.452;2023-12-28T04:25:16;2.85;;;1.48;;
24685;SDS011;12804;51.176;4.452;2023-12-28T04:27:41;5.22;;;1.42;;
24685;SDS011;12804;51.176;4.452;2023-12-28T04:30:07;5.22;;;1.40;;
24685;SDS011;12804;51.176;4.452;2023-12-28T04:32:37;5.00;;;1.38;;
24685;SDS011;12804;51.176;4.452;2023-12-28T04:35:03;5.47;;;1.38;;
24685;SDS011;12804;51.176;4.452;2023-12-28T04:37:29;8.05;;;1.60;;
24685;SDS011;12804;51.176;4.452;2023-12-28T04:39:56;6.80;;;1.50;;
24685;SDS011;12804;51.176;4.452;2023-12-28T04:42:22;3.47;;;1.50;;
24685;SDS011;12804;51.176;4.452;2023-12-28T04:44:48;4.05;;;1.52;;
24685;SDS011;12804;51.176;4.452;2023-12-28T04:47:14;4.35;;;1.75;;
24685;SDS011;12804;51.176;4.452;2023-12-28T04:49:40;6.32;;;1.70;;
24685;SDS011;12804;51.176;4.452;2023-12-28T04:52:05;4.38;;;1.30;;
24685;SDS011;12804;51.176;4.452;2023-12-28T04:54:31;7.00;;;1.35;;
24685;SDS011;12804;51.176;4.452;2023-12-28T04:56:58;2.97;;;1.42;;
24685;SDS011;12804;51.176;4.452;2023-12-28T04:59:25;5.60;;;1.55;;
24685;SDS011;12804;51.176;4.452;2023-12-28T05:01:50;8.68;;;1.65;;
24685;SDS011;12804;51.176;4.452;2023-12-28T05:04:16;5.18;;;1.42;;
24685;SDS011;12804;51.176;4.452;2023-12-28T05:06:42;7.63;;;1.48;;
24685;SDS011;12804;51.176;4.452;2023-12-28T05:09:08;5.18;;;1.50;;
24685;SDS011;12804;51.176;4.452;2023-12-28T05:11:34;6.68;;;1.30;;
24685;SDS011;12804;51.176;4.452;2023-12-28T05:14:00;11.38;;;1.67;;
24685;SDS011;12804;51.176;4.452;2023-12-28T05:16:25;8.73;;;1.45;;
24685;SDS011;12804;51.176;4.452;2023-12-28T05:18:51;5.03;;;1.48;;
24685;SDS011;12804;51.176;4.452;2023-12-28T05:21:17;8.40;;;1.95;;
24685;SDS011;12804;51.176;4.452;2023-12-28T05:23:43;8.63;;;1.38;;
24685;SDS011;12804;51.176;4.452;2023-12-28T05:26:09;6.38;;;1.40;;
24685;SDS011;12804;51.176;4.452;2023-12-28T05:28:35;5.70;;;1.48;;
24685;SDS011;12804;51.176;4.452;2023-12-28T05:31:01;7.10;;;1.27;;
24685;SDS011;12804;51.176;4.452;2023-12-28T05:33:26;5.32;;;1.42;;
24685;SDS011;12804;51.176;4.452;2023-12-28T05:35:52;6.80;;;1.50;;
24685;SDS011;12804;51.176;4.452;2023-12-28T05:38:18;8.70;;;1.60;;
24685;SDS011;12804;51.176;4.452;2023-12-28T05:40:44;6.20;;;1.63;;
24685;SDS011;12804;51.176;4.452;2023-12-28T05:43:10;7.68;;;1.60;;
24685;SDS011;12804;51.176;4.452;2023-12-28T05:45:36;7.60;;;1.30;;
24685;SDS011;12804;51.176;4.452;2023-12-28T05:48:02;7.68;;;1.40;;
24685;SDS011;12804;51.176;4.452;2023-12-28T05:50:28;5.97;;;1.30;;
24685;SDS011;12804;51.176;4.452;2023-12-28T05:52:54;5.95;;;1.48;;
24685;SDS011;12804;51.176;4.452;2023-12-28T05:55:20;7.65;;;1.65;;
24685;SDS011;12804;51.176;4.452;2023-12-28T05:57:46;9.85;;;1.50;;
24685;SDS011;12804;51.176;4.452;2023-12-28T06:00:12;7.13;;;1.58;;
24685;SDS011;12804;51.176;4.452;2023-12-28T06:02:40;9.45;;;1.50;;
24685;SDS011;12804;51.176;4.452;2023-12-28T06:05:06;6.65;;;1.45;;
24685;SDS011;12804;51.176;4.452;2023-12-28T06:07:32;10.63;;;1.77;;
24685;SDS011;12804;51.176;4.452;2023-12-28T06:09:58;6.15;;;1.20;;
24685;SDS011;12804;51.176;4.452;2023-12-28T06:12:24;12.63;;;1.70;;
24685;SDS011;12804;51.176;4.452;2023-12-28T06:14:50;7.05;;;1.70;;
24685;SDS011;12804;51.176;4.452;2023-12-28T06:17:16;7.97;;;1.40;;
24685;SDS011;12804;51.176;4.452;2023-12-28T06:19:43;10.50;;;1.70;;
24685;SDS011;12804;51.176;4.452;2023-12-28T06:22:09;8.70;;;1.33;;
24685;SDS011;12804;51.176;4.452;2023-12-28T06:24:38;7.75;;;1.52;;
24685;SDS011;12804;51.176;4.452;2023-12-28T06:27:05;6.95;;;1.60;;
24685;SDS011;12804;51.176;4.452;2023-12-28T06:29:31;9.75;;;1.40;;
24685;SDS011;12804;51.176;4.452;2023-12-28T06:31:57;7.38;;;1.75;;
24685;SDS011;12804;51.176;4.452;2023-12-28T06:34:23;9.05;;;1.75;;
24685;SDS011;12804;51.176;4.452;2023-12-28T06:36:48;5.38;;;1.20;;
24685;SDS011;12804;51.176;4.452;2023-12-28T06:39:14;8.02;;;1.52;;
24685;SDS011;12804;51.176;4.452;2023-12-28T06:41:40;9.73;;;1.77;;
24685;SDS011;12804;51.176;4.452;2023-12-28T06:44:06;10.63;;;1.67;;
24685;SDS011;12804;51.176;4.452;2023-12-28T06:46:32;9.18;;;1.40;;
24685;SDS011;12804;51.176;4.452;2023-12-28T06:48:58;9.52;;;1.50;;
24685;SDS011;12804;51.176;4.452;2023-12-28T06:51:24;8.82;;;1.88;;
24685;SDS011;12804;51.176;4.452;2023-12-28T06:53:50;8.15;;;1.45;;
24685;SDS011;12804;51.176;4.452;2023-12-28T06:56:16;7.65;;;1.63;;
24685;SDS011;12804;51.176;4.452;2023-12-28T06:58:42;4.28;;;1.17;;
24685;SDS011;12804;51.176;4.452;2023-12-28T07:01:08;14.50;;;2.13;;
24685;SDS011;12804;51.176;4.452;2023-12-28T07:03:34;8.32;;;1.35;;
24685;SDS011;12804;51.176;4.452;2023-12-28T07:06:00;8.02;;;1.38;;
24685;SDS011;12804;51.176;4.452;2023-12-28T07:08:27;8.48;;;1.70;;
24685;SDS011;12804;51.176;4.452;2023-12-28T07:10:54;11.55;;;2.17;;
24685;SDS011;12804;51.176;4.452;2023-12-28T07:13:19;5.30;;;1.25;;
24685;SDS011;12804;51.176;4.452;2023-12-28T07:15:45;10.48;;;1.42;;
24685;SDS011;12804;51.176;4.452;2023-12-28T07:18:11;10.57;;;1.63;;
24685;SDS011;12804;51.176;4.452;2023-12-28T07:20:37;8.23;;;1.58;;
24685;SDS011;12804;51.176;4.452;2023-12-28T07:23:03;10.85;;;2.10;;
24685;SDS011;12804;51.176;4.452;2023-12-28T07:25:29;10.48;;;1.90;;
24685;SDS011;12804;51.176;4.452;2023-12-28T07:27:54;11.43;;;1.10;;
24685;SDS011;12804;51.176;4.452;2023-12-28T07:30:20;10.25;;;1.55;;
24685;SDS011;12804;51.176;4.452;2023-12-28T07:32:46;11.85;;;1.80;;
24685;SDS011;12804;51.176;4.452;2023-12-28T07:35:12;10.85;;;1.58;;
24685;SDS011;12804;51.176;4.452;2023-12-28T07:37:38;7.68;;;1.50;;
24685;SDS011;12804;51.176;4.452;2023-12-28T07:40:04;10.60;;;1.60;;
24685;SDS011;12804;51.176;4.452;2023-12-28T07:42:30;8.07;;;1.25;;
24685;SDS011;12804;51.176;4.452;2023-12-28T07:44:56;12.05;;;1.50;;
24685;SDS011;12804;51.176;4.452;2023-12-28T07:47:22;7.72;;;1.58;;
24685;SDS011;12804;51.176;4.452;2023-12-28T07:49:48;12.10;;;1.83;;
24685;SDS011;12804;51.176;4.452;2023-12-28T07:52:14;13.27;;;1.75;;
24685;SDS011;12804;51.176;4.452;2023-12-28T07:54:39;11.90;;;1.65;;
24685;SDS011;12804;51.176;4.452;2023-12-28T07:57:05;10.18;;;1.80;;
24685;SDS011;12804;51.176;4.452;2023-12-28T07:59:31;11.20;;;1.42;;
24685;SDS011;12804;51.176;4.452;2023-12-28T08:01:57;8.82;;;1.33;;
24685;SDS011;12804;51.176;4.452;2023-12-28T08:04:23;7.72;;;1.58;;
24685;SDS011;12804;51.176;4.452;2023-12-28T08:06:49;11.25;;;1.70;;
24685;SDS011;12804;51.176;4.452;2023-12-28T08:09:14;9.93;;;1.33;;
24685;SDS011;12804;51.176;4.452;2023-12-28T08:11:40;11.32;;;1.55;;
24685;SDS011;12804;51.176;4.452;2023-12-28T08:14:07;11.68;;;1.67;;
24685;SDS011;12804;51.176;4.452;2023-12-28T08:16:32;8.63;;;1.73;;
24685;SDS011;12804;51.176;4.452;2023-12-28T08:19:00;12.25;;;1.50;;
24685;SDS011;12804;51.176;4.452;2023-12-28T08:21:26;10.93;;;1.50;;
24685;SDS011;12804;51.176;4.452;2023-12-28T08:23:52;10.50;;;1.75;;
24685;SDS011;12804;51.176;4.452;2023-12-28T08:26:18;11.77;;;1.35;;
24685;SDS011;12804;51.176;4.452;2023-12-28T08:28:45;10.48;;;1.40;;
24685;SDS011;12804;51.176;4.452;2023-12-28T08:31:10;6.72;;;1.30;;
24685;SDS011;12804;51.176;4.452;2023-12-28T08:33:37;13.00;;;1.75;;
24685;SDS011;12804;51.176;4.452;2023-12-28T08:36:06;14.75;;;1.45;;
24685;SDS011;12804;51.176;4.452;2023-12-28T08:38:32;12.35;;;1.60;;
24685;SDS011;12804;51.176;4.452;2023-12-28T08:40:58;8.52;;;1.35;;
24685;SDS011;12804;51.176;4.452;2023-12-28T08:43:24;4.95;;;1.40;;
24685;SDS011;12804;51.176;4.452;2023-12-28T08:45:50;14.77;;;2.13;;
24685;SDS011;12804;51.176;4.452;2023-12-28T08:48:15;11.60;;;1.60;;
24685;SDS011;12804;51.176;4.452;2023-12-28T08:50:41;13.27;;;2.05;;
24685;SDS011;12804;51.176;4.452;2023-12-28T08:53:07;13.90;;;1.85;;
24685;SDS011;12804;51.176;4.452;2023-12-28T08:55:33;12.82;;;2.75;;
24685;SDS011;12804;51.176;4.452;2023-12-28T08:57:58;11.30;;;1.33;;
24685;SDS011;12804;51.176;4.452;2023-12-28T09:00:24;10.63;;;1.67;;
24685;SDS011;12804;51.176;4.452;2023-12-28T09:02:50;12.15;;;2.08;;
24685;SDS011;12804;51.176;4.452;2023-12-28T09:05:16;8.50;;;1.35;;
24685;SDS011;12804;51.176;4.452;2023-12-28T09:07:43;11.23;;;1.70;;
24685;SDS011;12804;51.176;4.452;2023-12-28T09:10:09;13.55;;;1.98;;
24685;SDS011;12804;51.176;4.452;2023-12-28T09:12:36;10.77;;;1.83;;
24685;SDS011;12804;51.176;4.452;2023-12-28T09:15:02;10.05;;;1.55;;
24685;SDS011;12804;51.176;4.452;2023-12-28T09:17:31;12.98;;;2.00;;
24685;SDS011;12804;51.176;4.452;2023-12-28T09:19:57;10.18;;;1.40;;
24685;SDS011;12804;51.176;4.452;2023-12-28T09:22:23;14.43;;;2.20;;
24685;SDS011;12804;51.176;4.452;2023-12-28T09:24:49;11.40;;;1.92;;
24685;SDS011;12804;51.176;4.452;2023-12-28T09:27:15;10.98;;;1.80;;
24685;SDS011;12804;51.176;4.452;2023-12-28T09:29:41;8.45;;;1.27;;
24685;SDS011;12804;51.176;4.452;2023-12-28T09:32:06;9.85;;;1.63;;
24685;SDS011;12804;51.176;4.452;2023-12-28T09:34:32;8.70;;;1.70;;
24685;SDS011;12804;51.176;4.452;2023-12-28T09:36:58;11.43;;;1.52;;
24685;SDS011;12804;51.176;4.452;2023-12-28T09:39:24;13.70;;;1.90;;
24685;SDS011;12804;51.176;4.452;2023-12-28T09:41:54;12.88;;;2.33;;
24685;SDS011;12804;51.176;4.452;2023-12-28T09:44:27;14.30;;;2.30;;
24685;SDS011;12804;51.176;4.452;2023-12-28T09:46:55;6.22;;;1.50;;
24685;SDS011;12804;51.176;4.452;2023-12-28T09:49:23;8.65;;;1.63;;
24685;SDS011;12804;51.176;4.452;2023-12-28T09:51:48;15.55;;;2.00;;
24685;SDS011;12804;51.176;4.452;2023-12-28T09:54:14;7.82;;;1.60;;
24685;SDS011;12804;51.176;4.452;2023-12-28T09:56:40;13.25;;;1.83;;
24685;SDS011;12804;51.176;4.452;2023-12-28T09:59:06;12.82;;;2.35;;
24685;SDS011;12804;51.176;4.452;2023-12-28T10:01:35;11.07;;;1.75;;
24685;SDS011;12804;51.176;4.452;2023-12-28T10:04:02;10.55;;;1.83;;
24685;SDS011;12804;51.176;4.452;2023-12-28T10:06:30;10.77;;;1.70;;
24685;SDS011;12804;51.176;4.452;2023-12-28T10:08:56;15.00;;;2.17;;
24685;SDS011;12804;51.176;4.452;2023-12-28T10:11:22;15.65;;;1.95;;
24685;SDS011;12804;51.176;4.452;2023-12-28T10:13:49;11.45;;;1.60;;
24685;SDS011;12804;51.176;4.452;2023-12-28T10:16:15;15.27;;;2.40;;
24685;SDS011;12804;51.176;4.452;2023-12-28T10:18:44;12.18;;;1.85;;
24685;SDS011;12804;51.176;4.452;2023-12-28T10:21:10;10.85;;;1.95;;
24685;SDS011;12804;51.176;4.452;2023-12-28T10:23:40;13.90;;;2.05;;
24685;SDS011;12804;51.176;4.452;2023-12-28T10:26:06;13.13;;;1.85;;
24685;SDS011;12804;51.176;4.452;2023-12-28T10:28:34;9.68;;;1.48;;
24685;SDS011;12804;51.176;4.452;2023-12-28T10:31:02;13.27;;;1.70;;
24685;SDS011;12804;51.176;4.452;2023-12-28T10:33:28;15.80;;;1.80;;
24685;SDS011;12804;51.176;4.452;2023-12-28T10:36:06;12.40;;;1.77;;
24685;SDS011;12804;51.176;4.452;2023-12-28T10:38:36;10.90;;;1.88;;
24685;SDS011;12804;51.176;4.452;2023-12-28T10:41:04;8.27;;;1.55;;
24685;SDS011;12804;51.176;4.452;2023-12-28T10:43:35;12.10;;;1.73;;
24685;SDS011;12804;51.176;4.452;2023-12-28T10:46:07;14.68;;;2.25;;
24685;SDS011;12804;51.176;4.452;2023-12-28T10:48:35;10.73;;;1.88;;
24685;SDS011;12804;51.176;4.452;2023-12-28T10:51:06;8.82;;;1.65;;
24685;SDS011;12804;51.176;4.452;2023-12-28T10:53:48;12.23;;;2.25;;
24685;SDS011;12804;51.176;4.452;2023-12-28T10:58:49;11.93;;;1.63;;
24685;SDS011;12804;51.176;4.452;2023-12-28T11:01:31;10.55;;;1.75;;
24685;SDS011;12804;51.176;4.452;2023-12-28T11:04:23;10.73;;;1.77;;
24685;SDS011;12804;51.176;4.452;2023-12-28T11:07:02;13.02;;;2.75;;
24685;SDS011;12804;51.176;4.452;2023-12-28T11:09:30;11.57;;;2.17;;
24685;SDS011;12804;51.176;4.452;2023-12-28T11:11:57;13.85;;;2.08;;
24685;SDS011;12804;51.176;4.452;2023-12-28T11:14:29;12.23;;;1.50;;
24685;SDS011;12804;51.176;4.452;2023-12-28T11:16:56;10.70;;;1.95;;
24685;SDS011;12804;51.176;4.452;2023-12-28T11:19:25;14.25;;;1.83;;
24685;SDS011;12804;51.176;4.452;2023-12-28T11:21:53;10.73;;;1.98;;
24685;SDS011;12804;51.176;4.452;2023-12-28T11:24:21;12.27;;;1.77;;
24685;SDS011;12804;51.176;4.452;2023-12-28T11:26:54;13.68;;;2.45;;
24685;SDS011;12804;51.176;4.452;2023-12-28T11:29:21;13.93;;;1.83;;
24685;SDS011;12804;51.176;4.452;2023-12-28T11:31:54;16.13;;;2.10;;
24685;SDS011;12804;51.176;4.452;2023-12-28T11:34:28;15.48;;;2.08;;
24685;SDS011;12804;51.176;4.452;2023-12-28T11:36:55;10.23;;;2.03;;
24685;SDS011;12804;51.176;4.452;2023-12-28T11:39:32;9.73;;;1.58;;
24685;SDS011;12804;51.176;4.452;2023-12-28T11:42:02;15.90;;;2.55;;
24685;SDS011;12804;51.176;4.452;2023-12-28T11:44:29;9.75;;;1.58;;
24685;SDS011;12804;51.176;4.452;2023-12-28T11:46:56;19.02;;;2.10;;
24685;SDS011;12804;51.176;4.452;2023-12-28T11:49:25;11.25;;;1.45;;
24685;SDS011;12804;51.176;4.452;2023-12-28T11:51:54;13.23;;;1.92;;
24685;SDS011;12804;51.176;4.452;2023-12-28T11:54:24;9.75;;;1.90;;
24685;SDS011;12804;51.176;4.452;2023-12-28T11:56:50;12.10;;;1.67;;
24685;SDS011;12804;51.176;4.452;2023-12-28T11:59:17;9.60;;;1.98;;
24685;SDS011;12804;51.176;4.452;2023-12-28T12:01:48;8.25;;;1.85;;
24685;SDS011;12804;51.176;4.452;2023-12-28T12:04:18;11.80;;;2.03;;
24685;SDS011;12804;51.176;4.452;2023-12-28T12:06:45;17.40;;;2.03;;
24685;SDS011;12804;51.176;4.452;2023-12-28T12:09:12;14.50;;;1.73;;
24685;SDS011;12804;51.176;4.452;2023-12-28T12:11:39;12.85;;;2.20;;
24685;SDS011;12804;51.176;4.452;2023-12-28T12:14:11;11.57;;;2.15;;
24685;SDS011;12804;51.176;4.452;2023-12-28T12:16:37;11.85;;;1.55;;
24685;SDS011;12804;51.176;4.452;2023-12-28T12:19:06;15.30;;;1.90;;
24685;SDS011;12804;51.176;4.452;2023-12-28T12:21:33;11.85;;;1.52;;
24685;SDS011;12804;51.176;4.452;2023-12-28T12:23:59;13.38;;;2.08;;
24685;SDS011;12804;51.176;4.452;2023-12-28T12:26:28;11.73;;;2.13;;
24685;SDS011;12804;51.176;4.452;2023-12-28T12:28:55;15.15;;;2.42;;
24685;SDS011;12804;51.176;4.452;2023-12-28T12:31:21;12.57;;;2.08;;
24685;SDS011;12804;51.176;4.452;2023-12-28T12:33:48;12.45;;;2.00;;
24685;SDS011;12804;51.176;4.452;2023-12-28T12:36:14;12.00;;;2.15;;
24685;SDS011;12804;51.176;4.452;2023-12-28T12:38:40;11.18;;;1.80;;
24685;SDS011;12804;51.176;4.452;2023-12-28T12:41:06;16.90;;;2.00;;
24685;SDS011;12804;51.176;4.452;2023-12-28T12:43:33;9.75;;;1.75;;
24685;SDS011;12804;51.176;4.452;2023-12-28T12:45:59;13.57;;;1.67;;
24685;SDS011;12804;51.176;4.452;2023-12-28T12:48:25;11.20;;;2.00;;
24685;SDS011;12804;51.176;4.452;2023-12-28T12:50:51;17.40;;;3.72;;
24685;SDS011;12804;51.176;4.452;2023-12-28T12:53:17;12.30;;;1.77;;
24685;SDS011;12804;51.176;4.452;2023-12-28T12:55:43;11.80;;;2.25;;
24685;SDS011;12804;51.176;4.452;2023-12-28T12:58:11;11.32;;;1.80;;
24685;SDS011;12804;51.176;4.452;2023-12-28T13:00:38;24.15;;;2.00;;
24685;SDS011;12804;51.176;4.452;2023-12-28T13:03:07;12.40;;;1.98;;
24685;SDS011;12804;51.176;4.452;2023-12-28T13:05:35;12.68;;;1.92;;
24685;SDS011;12804;51.176;4.452;2023-12-28T13:08:01;12.38;;;1.95;;
24685;SDS011;12804;51.176;4.452;2023-12-28T13:10:27;7.47;;;1.38;;
24685;SDS011;12804;51.176;4.452;2023-12-28T13:12:53;18.65;;;2.00;;
24685;SDS011;12804;51.176;4.452;2023-12-28T13:15:19;12.27;;;1.95;;
24685;SDS011;12804;51.176;4.452;2023-12-28T13:17:45;10.50;;;1.77;;
24685;SDS011;12804;51.176;4.452;2023-12-28T13:20:11;17.67;;;2.28;;
24685;SDS011;12804;51.176;4.452;2023-12-28T13:22:37;10.23;;;1.88;;
24685;SDS011;12804;51.176;4.452;2023-12-28T13:25:03;14.63;;;2.03;;
24685;SDS011;12804;51.176;4.452;2023-12-28T13:27:29;11.48;;;1.52;;
24685;SDS011;12804;51.176;4.452;2023-12-28T13:29:56;12.18;;;1.85;;
24685;SDS011;12804;51.176;4.452;2023-12-28T13:32:22;11.38;;;2.20;;
24685;SDS011;12804;51.176;4.452;2023-12-28T13:34:48;14.30;;;1.75;;
24685;SDS011;12804;51.176;4.452;2023-12-28T13:37:16;14.35;;;2.25;;
24685;SDS011;12804;51.176;4.452;2023-12-28T13:39:42;13.88;;;1.42;;
24685;SDS011;12804;51.176;4.452;2023-12-28T13:42:08;13.65;;;1.90;;
24685;SDS011;12804;51.176;4.452;2023-12-28T13:44:34;11.35;;;1.88;;
24685;SDS011;12804;51.176;4.452;2023-12-28T13:47:03;14.07;;;2.30;;
24685;SDS011;12804;51.176;4.452;2023-12-28T13:49:31;12.60;;;1.88;;
24685;SDS011;12804;51.176;4.452;2023-12-28T13:51:57;13.82;;;1.95;;
24685;SDS011;12804;51.176;4.452;2023-12-28T13:54:22;9.18;;;1.55;;
24685;SDS011;12804;51.176;4.452;2023-12-28T13:56:53;11.80;;;1.70;;
24685;SDS011;12804;51.176;4.452;2023-12-28T13:59:22;13.93;;;1.95;;
24685;SDS011;12804;51.176;4.452;2023-12-28T14:01:48;11.23;;;1.45;;
24685;SDS011;12804;51.176;4.452;2023-12-28T14:04:14;13.70;;;1.70;;
24685;SDS011;12804;51.176;4.452;2023-12-28T14:06:40;9.63;;;1.88;;
24685;SDS011;12804;51.176;4.452;2023-12-28T14:09:06;9.95;;;1.80;;
24685;SDS011;12804;51.176;4.452;2023-12-28T14:11:33;16.95;;;1.92;;
24685;SDS011;12804;51.176;4.452;2023-12-28T14:13:59;12.75;;;2.08;;
24685;SDS011;12804;51.176;4.452;2023-12-28T14:16:25;11.10;;;1.50;;
24685;SDS011;12804;51.176;4.452;2023-12-28T14:18:51;10.27;;;1.50;;
24685;SDS011;12804;51.176;4.452;2023-12-28T14:21:17;10.88;;;2.08;;
24685;SDS011;12804;51.176;4.452;2023-12-28T14:23:44;16.60;;;1.67;;
24685;SDS011;12804;51.176;4.452;2023-12-28T14:26:14;9.13;;;1.73;;
24685;SDS011;12804;51.176;4.452;2023-12-28T14:28:41;16.83;;;2.30;;
24685;SDS011;12804;51.176;4.452;2023-12-28T14:31:08;14.48;;;2.35;;
24685;SDS011;12804;51.176;4.452;2023-12-28T14:33:35;11.68;;;1.88;;
24685;SDS011;12804;51.176;4.452;2023-12-28T14:36:02;14.38;;;1.70;;
24685;SDS011;12804;51.176;4.452;2023-12-28T14:38:30;12.50;;;1.80;;
24685;SDS011;12804;51.176;4.452;2023-12-28T14:40:56;10.05;;;1.77;;
24685;SDS011;12804;51.176;4.452;2023-12-28T14:43:22;9.02;;;1.65;;
24685;SDS011;12804;51.176;4.452;2023-12-28T14:45:48;14.55;;;2.00;;
24685;SDS011;12804;51.176;4.452;2023-12-28T14:48:14;9.70;;;2.10;;